createdAt,value
2022-10-29T03:55:10.008Z,12.38
2022-10-29T03:58:37.487Z,12.35
2022-10-29T04:02:04.331Z,12.33
2022-10-29T04:05:32.297Z,12.30
2022-10-29T04:09:00.055Z,12.28
2022-10-29T04:12:26.726Z,12.23
2022-10-29T04:15:56.907Z,12.19
2022-10-29T04:19:24.542Z,12.15
2022-10-29T04:30:31.016Z,12.03
2022-10-29T04:33:57.873Z,12.00
2022-10-29T04:37:25.054Z,11.97
2022-10-29T04:40:52.412Z,11.95
2022-10-29T04:44:20.166Z,11.92
2022-10-29T04:47:47.455Z,11.90
2022-10-29T04:51:22.133Z,11.88
2022-10-29T04:54:49.190Z,11.84
2022-10-29T04:58:17.757Z,11.82
2022-10-29T05:01:44.857Z,11.80
2022-10-29T05:05:12.162Z,11.78
2022-10-29T05:08:38.987Z,11.77
2022-10-29T05:12:08.244Z,11.76
2022-10-29T05:15:35.730Z,11.75
2022-10-29T05:19:02.926Z,11.75
2022-10-29T05:22:30.176Z,11.74
2022-10-29T05:25:58.045Z,11.73
2022-10-29T05:29:24.894Z,11.73
2022-10-29T05:32:51.641Z,11.72
2022-10-29T05:36:18.329Z,11.73
2022-10-29T05:39:45.137Z,11.73
2022-10-29T05:43:11.934Z,11.73
2022-10-29T05:46:38.978Z,11.74
2022-10-29T05:50:07.911Z,11.76
2022-10-29T05:53:34.811Z,11.78
2022-10-29T05:57:02.010Z,11.81
2022-10-29T06:00:31.719Z,11.86
2022-10-29T06:04:01.312Z,11.90
2022-10-29T06:07:28.451Z,11.96
2022-10-29T06:10:55.208Z,12.02
2022-10-29T06:14:22.533Z,12.12
2022-10-29T06:17:50.662Z,12.23
2022-10-29T06:21:17.414Z,12.37
2022-10-29T06:24:44.257Z,12.47
2022-10-29T06:28:15.471Z,12.57
2022-10-29T06:31:42.912Z,12.64
2022-10-29T06:35:11.304Z,12.70
2022-10-29T06:38:37.960Z,12.77
2022-10-29T06:42:04.809Z,12.84
2022-10-29T06:45:32.110Z,12.92
2022-10-29T06:48:59.332Z,12.99
2022-10-29T06:52:26.014Z,13.07
2022-10-29T06:55:52.651Z,13.12
2022-10-29T06:59:19.609Z,13.18
2022-10-29T07:02:46.362Z,13.22
2022-10-29T07:06:14.167Z,13.25
2022-10-29T07:09:43.132Z,13.30
2022-10-29T07:13:10.940Z,13.36
2022-10-29T07:16:38.758Z,13.42
2022-10-29T07:20:07.539Z,13.47
2022-10-29T07:23:34.171Z,13.53
2022-10-29T07:27:02.154Z,13.62
2022-10-29T07:30:29.003Z,13.70
2022-10-29T07:33:57.080Z,13.76
2022-10-29T07:37:23.845Z,13.79
2022-10-29T07:40:51.848Z,13.80
2022-10-29T07:44:18.475Z,13.85
2022-10-29T07:56:57.643Z,14.37
2022-10-29T08:00:24.236Z,14.51
2022-10-29T08:03:52.372Z,14.66
2022-10-29T08:07:19.207Z,14.81
2022-10-29T08:10:46.285Z,14.97
2022-10-29T08:14:14.978Z,15.14
2022-10-29T08:17:43.512Z,15.30
2022-10-29T08:21:10.501Z,15.46
2022-10-29T08:24:37.561Z,15.64
2022-10-29T08:28:05.892Z,15.81
2022-10-29T08:31:32.688Z,15.98
2022-10-29T08:34:59.775Z,16.14
2022-10-29T08:38:27.424Z,16.31
2022-10-29T08:42:10.420Z,16.48
2022-10-29T08:45:46.765Z,16.63
2022-10-29T08:49:18.713Z,16.74
2022-10-29T08:52:58.669Z,16.86
2022-10-29T08:56:34.812Z,16.95
2022-10-29T09:03:40.947Z,17.23
2022-10-29T09:07:28.838Z,17.36
2022-10-29T09:10:58.623Z,17.47
2022-10-29T09:14:47.527Z,17.58
2022-10-29T09:18:36.415Z,17.65
2022-10-29T09:22:15.787Z,17.74
2022-10-29T09:25:51.046Z,17.85
2022-10-29T09:29:39.532Z,17.94
2022-10-29T09:33:12.741Z,18.01
2022-10-29T09:36:40.617Z,18.09
2022-10-29T09:40:15.565Z,18.18
2022-10-29T09:43:49.515Z,18.26
2022-10-29T09:47:25.297Z,18.30
2022-10-29T09:51:01.008Z,18.30
2022-10-29T09:54:30.286Z,18.35
2022-10-29T09:57:59.111Z,18.43
2022-10-29T10:01:26.100Z,18.48
2022-10-29T10:04:56.950Z,18.48
2022-10-29T10:08:23.645Z,18.57
2022-10-29T10:11:54.361Z,18.62
2022-10-29T10:15:27.941Z,18.64
2022-10-29T10:18:55.383Z,18.65
2022-10-29T10:22:24.362Z,18.59
2022-10-29T10:25:52.490Z,18.56
2022-10-29T10:29:22.035Z,18.55
2022-10-29T10:32:49.189Z,18.53
2022-10-29T10:36:16.461Z,18.56
2022-10-29T10:39:45.840Z,18.64
2022-10-29T10:43:22.853Z,18.72
2022-10-29T10:46:51.022Z,18.81
2022-10-29T10:50:22.982Z,18.87
2022-10-29T10:53:50.390Z,18.93
2022-10-29T10:57:26.400Z,18.99
2022-10-29T11:00:59.813Z,19.09
2022-10-29T11:04:34.227Z,19.20
2022-10-29T11:08:08.122Z,19.39
2022-10-29T11:11:38.469Z,19.55
2022-10-29T11:15:13.160Z,19.70
2022-10-29T11:18:44.832Z,19.82
2022-10-29T11:22:20.969Z,19.87
2022-10-29T11:25:52.593Z,19.86
2022-10-29T11:29:26.158Z,19.88
2022-10-29T11:32:59.852Z,19.85
2022-10-29T11:36:31.613Z,19.83
2022-10-29T11:40:03.286Z,19.88
2022-10-29T11:43:30.079Z,19.89
2022-10-29T11:47:17.057Z,19.80
2022-10-29T11:50:54.232Z,19.70
2022-10-29T11:54:36.295Z,19.63
2022-10-29T11:58:10.069Z,19.54
2022-10-29T12:01:41.792Z,19.45
2022-10-29T12:05:18.476Z,19.33
2022-10-29T12:08:57.382Z,19.22
2022-10-29T12:12:31.302Z,19.15
2022-10-29T12:16:10.664Z,19.09
2022-10-29T12:19:47.955Z,19.04
2022-10-29T12:23:26.232Z,19.02
2022-10-29T12:27:00.617Z,19.07
2022-10-29T12:30:29.961Z,19.15
2022-10-29T12:33:59.287Z,19.24
2022-10-29T12:37:36.836Z,19.30
2022-10-29T12:41:07.863Z,19.36
2022-10-29T12:44:47.467Z,19.48
2022-10-29T12:48:16.874Z,19.55
2022-10-29T12:51:51.093Z,19.56
2022-10-29T12:55:19.751Z,19.56
2022-10-29T12:58:52.896Z,19.52
2022-10-29T13:02:45.830Z,19.50
2022-10-29T13:06:57.139Z,19.49
2022-10-29T13:10:55.219Z,19.48
2022-10-29T13:14:29.496Z,19.48
2022-10-29T13:18:00.572Z,19.44
2022-10-29T13:22:01.227Z,19.43
2022-10-29T13:25:51.717Z,19.41
2022-10-29T13:29:48.586Z,19.35
2022-10-29T13:33:45.919Z,19.34
2022-10-29T13:37:40.102Z,19.29
2022-10-29T13:41:19.235Z,19.22
2022-10-29T13:44:46.373Z,19.16
2022-10-29T13:48:23.569Z,19.11
2022-10-29T13:52:00.133Z,19.10
2022-10-29T13:55:31.294Z,19.09
2022-10-29T13:59:00.628Z,19.05
2022-10-29T14:02:36.755Z,18.99
2022-10-29T14:06:08.015Z,18.91
2022-10-29T14:09:43.960Z,18.85
2022-10-29T14:13:24.799Z,18.79
2022-10-29T14:16:51.863Z,18.72
2022-10-29T14:20:28.046Z,18.65
2022-10-29T14:24:02.907Z,18.59
2022-10-29T14:27:29.715Z,18.54
2022-10-29T14:31:13.095Z,18.50
2022-10-29T14:34:41.901Z,18.43
2022-10-29T14:38:11.475Z,18.35
2022-10-29T14:41:40.817Z,18.25
2022-10-29T14:45:18.673Z,18.16
2022-10-29T14:48:57.460Z,18.09
2022-10-29T14:52:38.706Z,18.02
2022-10-29T14:56:10.885Z,17.96
2022-10-29T14:59:38.577Z,17.86
2022-10-29T15:03:07.124Z,17.77
2022-10-29T15:06:34.079Z,17.66
2022-10-29T15:10:21.448Z,17.56
2022-10-29T15:13:48.647Z,17.46
2022-10-29T15:17:21.939Z,17.36
2022-10-29T15:20:48.976Z,17.26
2022-10-29T15:24:21.357Z,17.17
2022-10-29T15:27:49.596Z,17.07
2022-10-29T15:31:22.882Z,16.96
2022-10-29T15:34:52.501Z,16.86
2022-10-29T15:38:35.859Z,16.73
2022-10-29T15:42:03.375Z,16.61
2022-10-29T15:45:30.862Z,16.49
2022-10-29T15:48:58.079Z,16.37
2022-10-29T15:52:38.303Z,16.26
2022-10-29T15:56:05.220Z,16.17
2022-10-29T15:59:32.199Z,16.10
2022-10-29T16:03:02.151Z,16.03
2022-10-29T16:06:28.794Z,15.96
2022-10-29T16:09:58.520Z,15.90
2022-10-29T16:13:24.252Z,15.83
2022-10-29T16:16:50.831Z,15.75
2022-10-29T16:20:20.163Z,15.66
2022-10-29T16:23:47.304Z,15.58
2022-10-29T16:27:18.527Z,15.49
2022-10-29T16:30:47.076Z,15.40
2022-10-29T16:34:18.160Z,15.31
2022-10-29T16:37:47.433Z,15.22
2022-10-29T16:41:15.677Z,15.12
2022-10-29T16:44:46.192Z,15.01
2022-10-29T16:48:12.977Z,14.91
2022-10-29T16:51:39.830Z,14.81
2022-10-29T16:55:08.082Z,14.72
2022-10-29T16:58:34.663Z,14.63
2022-10-29T17:02:01.849Z,14.56
2022-10-29T17:05:28.716Z,14.48
2022-10-29T17:08:55.431Z,14.42
2022-10-29T17:12:22.081Z,14.36
2022-10-29T17:15:48.813Z,14.33
2022-10-29T17:19:16.519Z,14.30
2022-10-29T17:22:43.427Z,14.28
2022-10-29T17:26:10.099Z,14.24
2022-10-29T17:29:37.629Z,14.20
2022-10-29T17:33:04.226Z,14.17
2022-10-29T17:36:31.004Z,14.15
2022-10-29T17:40:01.430Z,14.13
2022-10-29T17:43:32.234Z,14.12
2022-10-29T17:46:58.818Z,14.10
2022-10-29T17:50:26.805Z,14.09
2022-10-29T17:53:53.812Z,14.09
2022-10-29T17:57:20.576Z,14.09
2022-10-29T18:00:48.352Z,14.09
2022-10-29T18:04:15.255Z,14.09
2022-10-29T18:07:41.913Z,14.09
2022-10-29T18:11:10.593Z,14.09
2022-10-29T18:14:37.817Z,14.10
2022-10-29T18:18:04.575Z,14.11
2022-10-29T18:21:31.655Z,14.13
2022-10-29T18:24:58.973Z,14.15
2022-10-29T18:28:26.015Z,14.17
2022-10-29T18:31:52.585Z,14.19
2022-10-29T18:35:19.240Z,14.21
2022-10-29T18:38:49.754Z,14.22
2022-10-29T18:42:16.481Z,14.23
2022-10-29T18:45:43.061Z,14.23
2022-10-29T18:49:10.586Z,14.23
2022-10-29T18:52:37.589Z,14.21
2022-10-29T18:56:05.901Z,14.20
2022-10-29T18:59:32.451Z,14.18
2022-10-29T19:03:00.132Z,14.17
2022-10-29T19:06:29.508Z,14.14
2022-10-29T19:09:56.486Z,14.12
2022-10-29T19:13:23.663Z,14.09
2022-10-29T19:16:50.803Z,14.07
2022-10-29T19:20:17.837Z,14.06
2022-10-29T19:23:46.305Z,14.04
2022-10-29T19:27:12.921Z,14.02
2022-10-29T19:30:39.530Z,13.98
2022-10-29T19:34:08.568Z,13.94
2022-10-29T19:37:35.502Z,13.93
2022-10-29T19:41:02.606Z,13.92
2022-10-29T19:44:29.828Z,13.92
2022-10-29T19:47:56.775Z,13.91
2022-10-29T19:51:24.716Z,13.90
2022-10-29T19:54:51.833Z,13.88
2022-10-29T19:58:19.763Z,13.89
2022-10-29T20:01:48.617Z,13.88
2022-10-29T20:05:15.744Z,13.88
2022-10-29T20:08:42.790Z,13.89
2022-10-29T20:12:09.959Z,13.92
2022-10-29T20:15:39.011Z,13.94
2022-10-29T20:19:05.702Z,13.96
2022-10-29T20:22:32.346Z,13.98
2022-10-29T20:25:59.082Z,14.02
2022-10-29T20:29:25.664Z,14.06
2022-10-29T20:32:52.596Z,14.09
2022-10-29T20:36:19.628Z,14.13
2022-10-29T20:39:46.505Z,14.17
2022-10-29T20:43:13.475Z,14.19
2022-10-29T20:46:42.712Z,14.19
2022-10-29T20:50:11.343Z,14.17
2022-10-29T20:53:38.024Z,14.15
2022-10-29T20:57:04.659Z,14.15
2022-10-29T21:00:31.289Z,14.14
2022-10-29T21:03:57.869Z,14.14
2022-10-29T21:07:24.599Z,14.13
2022-10-29T21:10:51.155Z,14.14
2022-10-29T21:14:17.793Z,14.13
2022-10-29T21:17:44.712Z,14.12
2022-10-29T21:21:12.111Z,14.11
2022-10-29T21:24:40.374Z,14.09
2022-10-29T21:28:09.889Z,14.06
2022-10-29T21:31:36.530Z,14.04
2022-10-29T21:35:03.603Z,14.01
2022-10-29T21:38:32.753Z,13.97
2022-10-29T21:42:00.280Z,13.95
2022-10-29T21:45:27.016Z,13.91
2022-10-29T21:48:55.568Z,13.88
2022-10-29T21:52:22.346Z,13.85
2022-10-29T21:55:49.423Z,13.82
2022-10-29T21:59:16.008Z,13.78
2022-10-29T22:02:43.067Z,13.74
2022-10-29T22:06:13.373Z,13.70
2022-10-29T22:09:40.777Z,13.65
2022-10-29T22:13:10.388Z,13.61
2022-10-29T22:16:40.069Z,13.54
2022-10-29T22:20:08.105Z,13.46
2022-10-29T22:23:35.091Z,13.41
2022-10-29T22:27:01.957Z,13.39
2022-10-29T22:30:28.826Z,13.37
2022-10-29T22:33:55.676Z,13.33
2022-10-29T22:37:22.637Z,13.29
2022-10-29T22:40:49.196Z,13.26
2022-10-29T22:44:15.823Z,13.24
2022-10-29T22:47:42.587Z,13.24
2022-10-29T22:51:12.652Z,13.23
